sensor_id;sensor_type;location;lat;lon;timestamp;temperature;humidity
17033;DHT22;63208;52.178;21.016;2023-08-31T00:01:29;16.70;99.90
17033;DHT22;63208;52.178;21.016;2023-08-31T00:03:56;16.70;99.90
17033;DHT22;63208;52.178;21.016;2023-08-31T00:06:24;16.60;99.90
17033;DHT22;63208;52.178;21.016;2023-08-31T00:08:51;16.60;99.90
17033;DHT22;63208;52.178;21.016;2023-08-31T00:11:18;16.50;99.90
17033;DHT22;63208;52.178;21.016;2023-08-31T00:13:46;16.50;99.90
17033;DHT22;63208;52.178;21.016;2023-08-31T00:16:13;16.60;99.90
17033;DHT22;63208;52.178;21.016;2023-08-31T00:18:40;16.50;99.90
17033;DHT22;63208;52.178;21.016;2023-08-31T00:21:06;16.50;99.90
17033;DHT22;63208;52.178;21.016;2023-08-31T00:23:34;16.50;99.90
17033;DHT22;63208;52.178;21.016;2023-08-31T00:26:02;16.50;99.90
17033;DHT22;63208;52.178;21.016;2023-08-31T00:28:30;16.50;99.90
17033;DHT22;63208;52.178;21.016;2023-08-31T00:30:59;16.40;99.90
17033;DHT22;63208;52.178;21.016;2023-08-31T00:33:31;16.40;99.90
17033;DHT22;63208;52.178;21.016;2023-08-31T00:35:58;16.50;99.90
17033;DHT22;63208;52.178;21.016;2023-08-31T00:38:26;16.40;99.90
17033;DHT22;63208;52.178;21.016;2023-08-31T00:40:54;16.40;99.90
17033;DHT22;63208;52.178;21.016;2023-08-31T00:43:20;16.40;99.90
17033;DHT22;63208;52.178;21.016;2023-08-31T00:45:48;16.30;99.90
17033;DHT22;63208;52.178;21.016;2023-08-31T00:48:16;16.40;99.90
17033;DHT22;63208;52.178;21.016;2023-08-31T00:50:43;16.40;99.90
17033;DHT22;63208;52.178;21.016;2023-08-31T00:53:10;16.30;99.90
17033;DHT22;63208;52.178;21.016;2023-08-31T00:55:37;16.40;99.90
17033;DHT22;63208;52.178;21.016;2023-08-31T00:58:05;16.30;99.90
17033;DHT22;63208;52.178;21.016;2023-08-31T01:00:33;16.30;99.90
17033;DHT22;63208;52.178;21.016;2023-08-31T01:03:05;16.30;99.90
17033;DHT22;63208;52.178;21.016;2023-08-31T01:05:36;16.30;99.90
17033;DHT22;63208;52.178;21.016;2023-08-31T01:08:08;16.30;99.90
17033;DHT22;63208;52.178;21.016;2023-08-31T01:10:39;16.30;99.90
17033;DHT22;63208;52.178;21.016;2023-08-31T01:13:10;16.30;99.90
17033;DHT22;63208;52.178;21.016;2023-08-31T01:15:39;16.30;99.90
17033;DHT22;63208;52.178;21.016;2023-08-31T01:18:07;16.20;99.90
17033;DHT22;63208;52.178;21.016;2023-08-31T01:20:38;16.20;99.90
17033;DHT22;63208;52.178;21.016;2023-08-31T01:23:06;16.20;99.90
17033;DHT22;63208;52.178;21.016;2023-08-31T01:25:36;16.20;99.90
17033;DHT22;63208;52.178;21.016;2023-08-31T01:28:04;16.20;99.90
17033;DHT22;63208;52.178;21.016;2023-08-31T01:30:31;16.20;99.90
17033;DHT22;63208;52.178;21.016;2023-08-31T01:32:58;16.20;99.90
17033;DHT22;63208;52.178;21.016;2023-08-31T01:35:26;16.40;99.90
17033;DHT22;63208;52.178;21.016;2023-08-31T01:37:53;16.20;99.90
17033;DHT22;63208;52.178;21.016;2023-08-31T01:40:22;16.20;99.90
17033;DHT22;63208;52.178;21.016;2023-08-31T01:42:51;16.20;99.90
17033;DHT22;63208;52.178;21.016;2023-08-31T01:45:19;16.20;99.90
17033;DHT22;63208;52.178;21.016;2023-08-31T01:47:46;16.20;99.90
17033;DHT22;63208;52.178;21.016;2023-08-31T01:50:13;16.10;99.90
17033;DHT22;63208;52.178;21.016;2023-08-31T01:52:40;16.10;99.90
17033;DHT22;63208;52.178;21.016;2023-08-31T01:55:06;16.10;99.90
17033;DHT22;63208;52.178;21.016;2023-08-31T01:57:33;16.10;99.90
17033;DHT22;63208;52.178;21.016;2023-08-31T02:00:01;16.10;99.90
17033;DHT22;63208;52.178;21.016;2023-08-31T02:02:29;16.00;99.90
17033;DHT22;63208;52.178;21.016;2023-08-31T02:04:56;15.90;99.90
17033;DHT22;63208;52.178;21.016;2023-08-31T02:07:26;16.00;99.90
17033;DHT22;63208;52.178;21.016;2023-08-31T02:09:53;16.10;99.90
17033;DHT22;63208;52.178;21.016;2023-08-31T02:12:19;16.00;99.90
17033;DHT22;63208;52.178;21.016;2023-08-31T02:14:46;15.90;99.90
17033;DHT22;63208;52.178;21.016;2023-08-31T02:17:14;16.00;99.90
17033;DHT22;63208;52.178;21.016;2023-08-31T02:19:41;16.00;99.90
17033;DHT22;63208;52.178;21.016;2023-08-31T02:22:08;16.00;99.90
17033;DHT22;63208;52.178;21.016;2023-08-31T02:24:34;16.00;99.90
17033;DHT22;63208;52.178;21.016;2023-08-31T02:27:01;16.00;99.90
17033;DHT22;63208;52.178;21.016;2023-08-31T02:29:28;16.00;99.90
17033;DHT22;63208;52.178;21.016;2023-08-31T02:31:54;16.00;99.90
17033;DHT22;63208;52.178;21.016;2023-08-31T02:34:22;15.90;99.90
17033;DHT22;63208;52.178;21.016;2023-08-31T02:36:49;16.00;99.90
17033;DHT22;63208;52.178;21.016;2023-08-31T02:39:15;16.00;99.90
17033;DHT22;63208;52.178;21.016;2023-08-31T02:41:43;16.00;99.90
17033;DHT22;63208;52.178;21.016;2023-08-31T02:44:10;16.00;99.90
17033;DHT22;63208;52.178;21.016;2023-08-31T02:46:37;16.00;99.90
17033;DHT22;63208;52.178;21.016;2023-08-31T02:49:04;16.00;99.90
17033;DHT22;63208;52.178;21.016;2023-08-31T02:51:32;16.00;99.90
17033;DHT22;63208;52.178;21.016;2023-08-31T02:53:59;16.00;99.90
17033;DHT22;63208;52.178;21.016;2023-08-31T02:56:25;16.00;99.90
17033;DHT22;63208;52.178;21.016;2023-08-31T02:58:52;16.00;99.90
17033;DHT22;63208;52.178;21.016;2023-08-31T03:01:19;16.00;99.90
17033;DHT22;63208;52.178;21.016;2023-08-31T03:03:45;16.00;99.90
17033;DHT22;63208;52.178;21.016;2023-08-31T03:06:12;16.00;99.90
17033;DHT22;63208;52.178;21.016;2023-08-31T03:08:40;15.90;99.90
17033;DHT22;63208;52.178;21.016;2023-08-31T03:11:06;16.00;99.90
17033;DHT22;63208;52.178;21.016;2023-08-31T03:13:33;15.90;99.90
17033;DHT22;63208;52.178;21.016;2023-08-31T03:16:00;15.90;99.90
17033;DHT22;63208;52.178;21.016;2023-08-31T03:18:28;15.80;99.90
17033;DHT22;63208;52.178;21.016;2023-08-31T03:20:54;15.80;99.90
17033;DHT22;63208;52.178;21.016;2023-08-31T03:23:21;15.70;99.90
17033;DHT22;63208;52.178;21.016;2023-08-31T03:25:49;15.80;99.90
17033;DHT22;63208;52.178;21.016;2023-08-31T03:28:16;15.70;99.90
17033;DHT22;63208;52.178;21.016;2023-08-31T03:30:42;15.70;99.90
17033;DHT22;63208;52.178;21.016;2023-08-31T03:33:10;15.70;99.90
17033;DHT22;63208;52.178;21.016;2023-08-31T03:35:37;15.70;99.90
17033;DHT22;63208;52.178;21.016;2023-08-31T03:38:04;15.70;99.90
17033;DHT22;63208;52.178;21.016;2023-08-31T03:40:30;15.80;99.90
17033;DHT22;63208;52.178;21.016;2023-08-31T03:42:58;15.70;99.90
17033;DHT22;63208;52.178;21.016;2023-08-31T03:45:25;15.70;99.90
17033;DHT22;63208;52.178;21.016;2023-08-31T03:47:52;15.70;99.90
17033;DHT22;63208;52.178;21.016;2023-08-31T03:50:18;15.80;99.90
17033;DHT22;63208;52.178;21.016;2023-08-31T03:52:45;15.80;99.90
17033;DHT22;63208;52.178;21.016;2023-08-31T03:55:12;15.80;99.90
17033;DHT22;63208;52.178;21.016;2023-08-31T03:57:38;15.80;99.90
17033;DHT22;63208;52.178;21.016;2023-08-31T04:00:07;15.80;99.90
17033;DHT22;63208;52.178;21.016;2023-08-31T04:02:34;15.80;99.90
17033;DHT22;63208;52.178;21.016;2023-08-31T04:05:00;15.80;99.90
17033;DHT22;63208;52.178;21.016;2023-08-31T04:07:30;15.80;99.90
17033;DHT22;63208;52.178;21.016;2023-08-31T04:09:57;15.90;99.90
17033;DHT22;63208;52.178;21.016;2023-08-31T04:12:23;15.80;99.90
17033;DHT22;63208;52.178;21.016;2023-08-31T04:14:50;15.80;99.90
17033;DHT22;63208;52.178;21.016;2023-08-31T04:17:18;15.80;99.90
17033;DHT22;63208;52.178;21.016;2023-08-31T04:19:45;16.00;99.90
17033;DHT22;63208;52.178;21.016;2023-08-31T04:22:11;16.00;99.90
17033;DHT22;63208;52.178;21.016;2023-08-31T04:24:47;15.80;99.90
17033;DHT22;63208;52.178;21.016;2023-08-31T04:27:14;16.10;99.90
17033;DHT22;63208;52.178;21.016;2023-08-31T04:29:40;16.00;99.90
17033;DHT22;63208;52.178;21.016;2023-08-31T04:32:07;15.90;99.90
17033;DHT22;63208;52.178;21.016;2023-08-31T04:34:35;15.90;99.90
17033;DHT22;63208;52.178;21.016;2023-08-31T04:37:02;15.90;99.90
17033;DHT22;63208;52.178;21.016;2023-08-31T04:39:28;15.80;99.90
17033;DHT22;63208;52.178;21.016;2023-08-31T04:41:55;15.80;99.90
17033;DHT22;63208;52.178;21.016;2023-08-31T04:44:22;15.80;99.90
17033;DHT22;63208;52.178;21.016;2023-08-31T04:46:48;15.80;99.90
17033;DHT22;63208;52.178;21.016;2023-08-31T04:49:15;15.80;99.90
17033;DHT22;63208;52.178;21.016;2023-08-31T04:51:44;15.80;99.90
17033;DHT22;63208;52.178;21.016;2023-08-31T04:54:19;15.80;99.90
17033;DHT22;63208;52.178;21.016;2023-08-31T04:56:46;15.90;99.90
17033;DHT22;63208;52.178;21.016;2023-08-31T04:59:13;15.90;99.90
17033;DHT22;63208;52.178;21.016;2023-08-31T05:01:40;15.90;99.90
17033;DHT22;63208;52.178;21.016;2023-08-31T05:04:06;16.00;99.90
17033;DHT22;63208;52.178;21.016;2023-08-31T05:06:33;16.00;99.90
17033;DHT22;63208;52.178;21.016;2023-08-31T05:09:01;15.90;99.90
17033;DHT22;63208;52.178;21.016;2023-08-31T05:11:28;16.10;99.90
17033;DHT22;63208;52.178;21.016;2023-08-31T05:13:55;16.10;99.90
17033;DHT22;63208;52.178;21.016;2023-08-31T05:16:22;16.30;99.90
17033;DHT22;63208;52.178;21.016;2023-08-31T05:18:48;16.10;99.90
17033;DHT22;63208;52.178;21.016;2023-08-31T05:21:15;16.10;99.90
17033;DHT22;63208;52.178;21.016;2023-08-31T05:23:42;16.10;99.90
17033;DHT22;63208;52.178;21.016;2023-08-31T05:26:10;16.10;99.90
17033;DHT22;63208;52.178;21.016;2023-08-31T05:28:36;16.10;99.90
17033;DHT22;63208;52.178;21.016;2023-08-31T05:31:03;16.10;99.90
17033;DHT22;63208;52.178;21.016;2023-08-31T05:33:30;16.10;99.90
17033;DHT22;63208;52.178;21.016;2023-08-31T05:36:00;16.10;99.90
17033;DHT22;63208;52.178;21.016;2023-08-31T05:38:27;16.10;99.90
17033;DHT22;63208;52.178;21.016;2023-08-31T05:40:54;16.10;99.90
17033;DHT22;63208;52.178;21.016;2023-08-31T05:43:22;16.10;99.90
17033;DHT22;63208;52.178;21.016;2023-08-31T05:45:48;16.10;99.90
17033;DHT22;63208;52.178;21.016;2023-08-31T05:48:15;16.10;99.90
17033;DHT22;63208;52.178;21.016;2023-08-31T05:50:41;16.10;99.90
17033;DHT22;63208;52.178;21.016;2023-08-31T05:53:08;16.10;99.90
17033;DHT22;63208;52.178;21.016;2023-08-31T05:55:35;16.10;99.90
17033;DHT22;63208;52.178;21.016;2023-08-31T05:58:02;16.20;99.90
17033;DHT22;63208;52.178;21.016;2023-08-31T06:00:31;16.20;99.90
17033;DHT22;63208;52.178;21.016;2023-08-31T06:02:58;16.20;99.90
17033;DHT22;63208;52.178;21.016;2023-08-31T06:07:55;16.20;99.90
17033;DHT22;63208;52.178;21.016;2023-08-31T06:10:22;16.20;99.90
17033;DHT22;63208;52.178;21.016;2023-08-31T06:12:49;16.20;99.90
17033;DHT22;63208;52.178;21.016;2023-08-31T06:15:15;16.30;99.90
17033;DHT22;63208;52.178;21.016;2023-08-31T06:27:32;17.00;99.90
17033;DHT22;63208;52.178;21.016;2023-08-31T06:32:25;16.40;99.90
17033;DHT22;63208;52.178;21.016;2023-08-31T06:34:53;16.10;99.90
17033;DHT22;63208;52.178;21.016;2023-08-31T06:39:46;16.40;99.90
17033;DHT22;63208;52.178;21.016;2023-08-31T06:47:16;16.20;99.90
17033;DHT22;63208;52.178;21.016;2023-08-31T07:04:27;16.50;99.90
17033;DHT22;63208;52.178;21.016;2023-08-31T07:07:03;16.50;99.90
17033;DHT22;63208;52.178;21.016;2023-08-31T07:09:30;16.40;99.90
17033;DHT22;63208;52.178;21.016;2023-08-31T07:14:24;16.50;99.90
17033;DHT22;63208;52.178;21.016;2023-08-31T07:16:51;16.50;99.90
17033;DHT22;63208;52.178;21.016;2023-08-31T07:19:18;16.60;99.90
17033;DHT22;63208;52.178;21.016;2023-08-31T07:24:14;16.80;99.90
17033;DHT22;63208;52.178;21.016;2023-08-31T07:26:40;16.70;99.90
17033;DHT22;63208;52.178;21.016;2023-08-31T07:29:07;16.60;99.90
17033;DHT22;63208;52.178;21.016;2023-08-31T07:31:34;16.60;99.90
17033;DHT22;63208;52.178;21.016;2023-08-31T07:34:01;16.70;99.90
17033;DHT22;63208;52.178;21.016;2023-08-31T07:36:28;16.60;99.90
17033;DHT22;63208;52.178;21.016;2023-08-31T07:41:24;16.80;99.90
17033;DHT22;63208;52.178;21.016;2023-08-31T07:43:51;16.80;99.90
17033;DHT22;63208;52.178;21.016;2023-08-31T07:46:17;16.80;99.90
17033;DHT22;63208;52.178;21.016;2023-08-31T07:48:44;16.80;99.90
17033;DHT22;63208;52.178;21.016;2023-08-31T07:51:12;16.90;99.90
17033;DHT22;63208;52.178;21.016;2023-08-31T07:53:39;16.90;99.90
17033;DHT22;63208;52.178;21.016;2023-08-31T07:56:05;17.00;99.90
17033;DHT22;63208;52.178;21.016;2023-08-31T07:58:33;17.10;99.90
17033;DHT22;63208;52.178;21.016;2023-08-31T08:01:00;17.20;99.90
17033;DHT22;63208;52.178;21.016;2023-08-31T08:03:27;17.20;99.90
17033;DHT22;63208;52.178;21.016;2023-08-31T08:05:55;17.40;99.90
17033;DHT22;63208;52.178;21.016;2023-08-31T08:08:22;17.40;99.90
17033;DHT22;63208;52.178;21.016;2023-08-31T08:10:51;17.40;99.90
17033;DHT22;63208;52.178;21.016;2023-08-31T08:13:18;17.40;99.90
17033;DHT22;63208;52.178;21.016;2023-08-31T08:15:49;17.40;99.90
17033;DHT22;63208;52.178;21.016;2023-08-31T08:18:16;17.40;99.90
17033;DHT22;63208;52.178;21.016;2023-08-31T08:20:42;17.40;99.90
17033;DHT22;63208;52.178;21.016;2023-08-31T08:23:09;17.40;99.90
17033;DHT22;63208;52.178;21.016;2023-08-31T08:25:35;17.70;99.90
17033;DHT22;63208;52.178;21.016;2023-08-31T08:28:02;17.70;99.90
17033;DHT22;63208;52.178;21.016;2023-08-31T08:30:29;17.70;99.90
17033;DHT22;63208;52.178;21.016;2023-08-31T08:32:57;17.90;99.90
17033;DHT22;63208;52.178;21.016;2023-08-31T08:35:25;18.00;99.90
17033;DHT22;63208;52.178;21.016;2023-08-31T08:37:51;18.00;99.90
17033;DHT22;63208;52.178;21.016;2023-08-31T08:40:18;17.90;99.90
17033;DHT22;63208;52.178;21.016;2023-08-31T08:47:40;18.00;99.90
17033;DHT22;63208;52.178;21.016;2023-08-31T08:52:36;18.10;99.90
17033;DHT22;63208;52.178;21.016;2023-08-31T08:55:03;18.20;99.90
17033;DHT22;63208;52.178;21.016;2023-08-31T08:59:58;18.30;99.90
17033;DHT22;63208;52.178;21.016;2023-08-31T09:02:24;18.40;99.90
17033;DHT22;63208;52.178;21.016;2023-08-31T09:14:42;18.40;99.90
17033;DHT22;63208;52.178;21.016;2023-08-31T09:17:09;18.40;99.90
17033;DHT22;63208;52.178;21.016;2023-08-31T09:24:41;18.30;99.90
17033;DHT22;63208;52.178;21.016;2023-08-31T09:27:10;18.50;99.90
17033;DHT22;63208;52.178;21.016;2023-08-31T09:29:37;18.50;99.90
17033;DHT22;63208;52.178;21.016;2023-08-31T09:32:05;18.50;99.90
17033;DHT22;63208;52.178;21.016;2023-08-31T09:34:33;18.50;99.90
17033;DHT22;63208;52.178;21.016;2023-08-31T09:37:03;18.60;99.90
17033;DHT22;63208;52.178;21.016;2023-08-31T09:39:30;18.90;99.90
17033;DHT22;63208;52.178;21.016;2023-08-31T09:42:04;18.70;99.90
17033;DHT22;63208;52.178;21.016;2023-08-31T09:44:31;18.60;99.90
17033;DHT22;63208;52.178;21.016;2023-08-31T09:46:58;18.90;99.90
17033;DHT22;63208;52.178;21.016;2023-08-31T09:49:26;18.80;99.90
17033;DHT22;63208;52.178;21.016;2023-08-31T09:51:53;19.20;99.90
17033;DHT22;63208;52.178;21.016;2023-08-31T09:54:20;19.30;99.90
17033;DHT22;63208;52.178;21.016;2023-08-31T09:56:49;19.20;99.90
17033;DHT22;63208;52.178;21.016;2023-08-31T09:59:26;19.20;99.90
17033;DHT22;63208;52.178;21.016;2023-08-31T10:01:53;19.40;99.90
17033;DHT22;63208;52.178;21.016;2023-08-31T10:04:21;19.60;99.90
17033;DHT22;63208;52.178;21.016;2023-08-31T10:06:50;19.20;99.90
17033;DHT22;63208;52.178;21.016;2023-08-31T10:09:17;19.20;99.90
17033;DHT22;63208;52.178;21.016;2023-08-31T10:11:44;19.30;99.90
17033;DHT22;63208;52.178;21.016;2023-08-31T10:14:11;19.60;99.90
17033;DHT22;63208;52.178;21.016;2023-08-31T10:16:39;19.40;99.90
17033;DHT22;63208;52.178;21.016;2023-08-31T10:19:05;19.40;99.90
17033;DHT22;63208;52.178;21.016;2023-08-31T10:21:32;19.40;99.90
17033;DHT22;63208;52.178;21.016;2023-08-31T10:24:04;19.40;99.90
17033;DHT22;63208;52.178;21.016;2023-08-31T10:26:32;19.50;99.90
17033;DHT22;63208;52.178;21.016;2023-08-31T10:28:59;19.80;99.90
17033;DHT22;63208;52.178;21.016;2023-08-31T10:31:28;19.90;99.90
17033;DHT22;63208;52.178;21.016;2023-08-31T10:33:55;19.80;99.90
17033;DHT22;63208;52.178;21.016;2023-08-31T10:36:34;20.00;99.90
17033;DHT22;63208;52.178;21.016;2023-08-31T10:39:04;19.80;99.90
17033;DHT22;63208;52.178;21.016;2023-08-31T10:43:59;19.60;99.90
17033;DHT22;63208;52.178;21.016;2023-08-31T10:46:29;19.50;99.90
17033;DHT22;63208;52.178;21.016;2023-08-31T10:48:56;19.70;99.90
17033;DHT22;63208;52.178;21.016;2023-08-31T10:54:05;19.70;99.90
17033;DHT22;63208;52.178;21.016;2023-08-31T10:56:32;19.90;99.90
17033;DHT22;63208;52.178;21.016;2023-08-31T10:59:00;19.80;99.90
17033;DHT22;63208;52.178;21.016;2023-08-31T11:04:13;20.10;99.90
17033;DHT22;63208;52.178;21.016;2023-08-31T11:06:40;20.10;99.90
17033;DHT22;63208;52.178;21.016;2023-08-31T11:09:06;20.30;99.90
17033;DHT22;63208;52.178;21.016;2023-08-31T11:11:37;19.90;99.90
17033;DHT22;63208;52.178;21.016;2023-08-31T11:14:05;19.90;99.90
17033;DHT22;63208;52.178;21.016;2023-08-31T11:16:37;20.10;99.90
17033;DHT22;63208;52.178;21.016;2023-08-31T11:19:04;20.20;99.90
17033;DHT22;63208;52.178;21.016;2023-08-31T11:21:31;20.40;99.90
17033;DHT22;63208;52.178;21.016;2023-08-31T11:23:57;20.50;99.90
17033;DHT22;63208;52.178;21.016;2023-08-31T11:28:52;20.30;99.90
17033;DHT22;63208;52.178;21.016;2023-08-31T11:31:24;20.40;99.90
17033;DHT22;63208;52.178;21.016;2023-08-31T11:33:54;20.40;99.90
17033;DHT22;63208;52.178;21.016;2023-08-31T11:36:21;20.50;99.90
17033;DHT22;63208;52.178;21.016;2023-08-31T11:38:48;21.70;99.90
17033;DHT22;63208;52.178;21.016;2023-08-31T11:41:15;20.60;99.90
17033;DHT22;63208;52.178;21.016;2023-08-31T11:43:42;20.70;99.90
17033;DHT22;63208;52.178;21.016;2023-08-31T11:46:09;21.00;99.90
17033;DHT22;63208;52.178;21.016;2023-08-31T11:48:37;21.30;99.90
17033;DHT22;63208;52.178;21.016;2023-08-31T11:51:03;21.30;99.90
17033;DHT22;63208;52.178;21.016;2023-08-31T11:53:30;21.20;99.90
17033;DHT22;63208;52.178;21.016;2023-08-31T11:55:57;21.30;99.90
17033;DHT22;63208;52.178;21.016;2023-08-31T11:58:25;21.20;99.90
17033;DHT22;63208;52.178;21.016;2023-08-31T12:00:56;21.30;99.90
17033;DHT22;63208;52.178;21.016;2023-08-31T12:03:23;21.50;99.90
17033;DHT22;63208;52.178;21.016;2023-08-31T12:05:52;21.50;99.90
17033;DHT22;63208;52.178;21.016;2023-08-31T12:08:23;21.70;99.90
17033;DHT22;63208;52.178;21.016;2023-08-31T12:10:50;21.80;99.90
17033;DHT22;63208;52.178;21.016;2023-08-31T12:13:17;21.30;99.90
17033;DHT22;63208;52.178;21.016;2023-08-31T12:15:43;21.40;99.90
17033;DHT22;63208;52.178;21.016;2023-08-31T12:18:10;21.40;99.90
17033;DHT22;63208;52.178;21.016;2023-08-31T12:20:42;21.20;99.90
17033;DHT22;63208;52.178;21.016;2023-08-31T12:23:10;21.30;99.90
17033;DHT22;63208;52.178;21.016;2023-08-31T12:25:37;21.80;99.90
17033;DHT22;63208;52.178;21.016;2023-08-31T12:28:03;22.10;99.90
17033;DHT22;63208;52.178;21.016;2023-08-31T12:30:30;22.10;99.90
17033;DHT22;63208;52.178;21.016;2023-08-31T12:32:57;21.80;99.90
17033;DHT22;63208;52.178;21.016;2023-08-31T12:35:23;21.50;99.90
17033;DHT22;63208;52.178;21.016;2023-08-31T12:37:50;21.40;99.90
17033;DHT22;63208;52.178;21.016;2023-08-31T12:40:18;21.40;99.90
17033;DHT22;63208;52.178;21.016;2023-08-31T12:42:45;21.40;99.90
17033;DHT22;63208;52.178;21.016;2023-08-31T12:45:12;21.30;99.90
17033;DHT22;63208;52.178;21.016;2023-08-31T12:47:39;21.50;99.90
17033;DHT22;63208;52.178;21.016;2023-08-31T12:50:06;22.60;99.90
17033;DHT22;63208;52.178;21.016;2023-08-31T12:52:33;22.80;99.90
17033;DHT22;63208;52.178;21.016;2023-08-31T12:54:59;23.00;99.90
17033;DHT22;63208;52.178;21.016;2023-08-31T12:57:27;23.30;99.90
17033;DHT22;63208;52.178;21.016;2023-08-31T13:02:57;23.30;99.90
17033;DHT22;63208;52.178;21.016;2023-08-31T13:05:23;23.30;99.90
17033;DHT22;63208;52.178;21.016;2023-08-31T13:07:51;24.10;99.90
17033;DHT22;63208;52.178;21.016;2023-08-31T13:10:17;24.80;99.90
17033;DHT22;63208;52.178;21.016;2023-08-31T13:12:45;25.60;99.90
17033;DHT22;63208;52.178;21.016;2023-08-31T13:15:12;25.60;99.90
17033;DHT22;63208;52.178;21.016;2023-08-31T13:17:40;25.70;99.90
17033;DHT22;63208;52.178;21.016;2023-08-31T13:20:07;25.30;99.90
17033;DHT22;63208;52.178;21.016;2023-08-31T13:22:34;24.70;99.90
17033;DHT22;63208;52.178;21.016;2023-08-31T13:25:04;24.20;99.90
17033;DHT22;63208;52.178;21.016;2023-08-31T13:27:31;25.20;99.90
17033;DHT22;63208;52.178;21.016;2023-08-31T13:30:00;22.90;99.90
17033;DHT22;63208;52.178;21.016;2023-08-31T13:32:30;23.00;99.90
17033;DHT22;63208;52.178;21.016;2023-08-31T13:34:57;23.10;99.90
17033;DHT22;63208;52.178;21.016;2023-08-31T13:37:24;23.40;99.90
17033;DHT22;63208;52.178;21.016;2023-08-31T13:39:50;22.70;99.90
17033;DHT22;63208;52.178;21.016;2023-08-31T13:42:20;22.40;99.90
17033;DHT22;63208;52.178;21.016;2023-08-31T13:44:46;22.60;99.90
17033;DHT22;63208;52.178;21.016;2023-08-31T13:47:14;22.80;99.90
17033;DHT22;63208;52.178;21.016;2023-08-31T13:49:41;22.60;99.90
17033;DHT22;63208;52.178;21.016;2023-08-31T13:52:08;22.50;99.90
17033;DHT22;63208;52.178;21.016;2023-08-31T13:54:35;22.40;99.90
17033;DHT22;63208;52.178;21.016;2023-08-31T13:57:02;22.20;99.90
17033;DHT22;63208;52.178;21.016;2023-08-31T13:59:29;22.00;99.90
17033;DHT22;63208;52.178;21.016;2023-08-31T14:07:37;19.20;99.90
17033;DHT22;63208;52.178;21.016;2023-08-31T14:10:04;18.70;99.90
17033;DHT22;63208;52.178;21.016;2023-08-31T14:12:31;18.30;99.90
17033;DHT22;63208;52.178;21.016;2023-08-31T14:14:58;18.30;99.90
17033;DHT22;63208;52.178;21.016;2023-08-31T14:17:26;18.30;99.90
17033;DHT22;63208;52.178;21.016;2023-08-31T14:19:52;18.10;99.90
17033;DHT22;63208;52.178;21.016;2023-08-31T14:24:49;17.90;99.90
17033;DHT22;63208;52.178;21.016;2023-08-31T14:27:16;17.90;99.90
17033;DHT22;63208;52.178;21.016;2023-08-31T14:29:42;17.90;99.90
17033;DHT22;63208;52.178;21.016;2023-08-31T14:39:30;17.90;99.90
17033;DHT22;63208;52.178;21.016;2023-08-31T14:41:58;17.60;99.90
17033;DHT22;63208;52.178;21.016;2023-08-31T14:44:25;17.40;99.90
17033;DHT22;63208;52.178;21.016;2023-08-31T14:46:52;17.50;99.90
17033;DHT22;63208;52.178;21.016;2023-08-31T14:49:21;16.90;99.90
17033;DHT22;63208;52.178;21.016;2023-08-31T14:51:48;16.80;99.90
17033;DHT22;63208;52.178;21.016;2023-08-31T14:54:15;16.60;99.90
17033;DHT22;63208;52.178;21.016;2023-08-31T14:56:47;16.50;99.90
17033;DHT22;63208;52.178;21.016;2023-08-31T14:59:15;16.30;99.90
17033;DHT22;63208;52.178;21.016;2023-08-31T15:01:42;16.20;99.90
17033;DHT22;63208;52.178;21.016;2023-08-31T15:04:08;16.20;99.90
17033;DHT22;63208;52.178;21.016;2023-08-31T15:06:35;16.10;99.90
17033;DHT22;63208;52.178;21.016;2023-08-31T15:09:02;16.20;99.90
17033;DHT22;63208;52.178;21.016;2023-08-31T15:11:30;16.20;99.90
17033;DHT22;63208;52.178;21.016;2023-08-31T15:16:25;16.30;99.90
17033;DHT22;63208;52.178;21.016;2023-08-31T15:18:53;16.40;99.90
17033;DHT22;63208;52.178;21.016;2023-08-31T15:21:20;16.50;99.90
17033;DHT22;63208;52.178;21.016;2023-08-31T15:23:46;17.50;99.90
17033;DHT22;63208;52.178;21.016;2023-08-31T15:26:13;16.70;99.90
17033;DHT22;63208;52.178;21.016;2023-08-31T15:28:43;16.90;99.90
17033;DHT22;63208;52.178;21.016;2023-08-31T15:31:11;17.10;99.90
17033;DHT22;63208;52.178;21.016;2023-08-31T15:33:39;17.20;99.90
17033;DHT22;63208;52.178;21.016;2023-08-31T15:36:06;17.30;99.90
17033;DHT22;63208;52.178;21.016;2023-08-31T15:38:33;17.30;99.90
17033;DHT22;63208;52.178;21.016;2023-08-31T15:41:00;17.20;99.90
17033;DHT22;63208;52.178;21.016;2023-08-31T15:43:29;18.40;99.90
17033;DHT22;63208;52.178;21.016;2023-08-31T15:45:55;17.10;99.90
17033;DHT22;63208;52.178;21.016;2023-08-31T15:48:22;17.20;99.90
17033;DHT22;63208;52.178;21.016;2023-08-31T15:50:50;16.50;99.90
17033;DHT22;63208;52.178;21.016;2023-08-31T15:53:17;17.30;99.90
17033;DHT22;63208;52.178;21.016;2023-08-31T15:55:45;17.20;99.90
17033;DHT22;63208;52.178;21.016;2023-08-31T15:58:12;17.30;99.90
17033;DHT22;63208;52.178;21.016;2023-08-31T16:00:42;17.50;99.90
17033;DHT22;63208;52.178;21.016;2023-08-31T16:03:09;19.20;99.90
17033;DHT22;63208;52.178;21.016;2023-08-31T16:05:36;17.50;99.90
17033;DHT22;63208;52.178;21.016;2023-08-31T16:08:05;17.60;99.90
17033;DHT22;63208;52.178;21.016;2023-08-31T16:10:31;17.60;99.90
17033;DHT22;63208;52.178;21.016;2023-08-31T16:12:58;18.40;99.90
17033;DHT22;63208;52.178;21.016;2023-08-31T16:15:25;19.50;99.90
17033;DHT22;63208;52.178;21.016;2023-08-31T16:17:52;17.90;99.90
17033;DHT22;63208;52.178;21.016;2023-08-31T16:20:19;18.00;99.90
17033;DHT22;63208;52.178;21.016;2023-08-31T16:22:46;18.10;99.90
17033;DHT22;63208;52.178;21.016;2023-08-31T16:25:14;18.10;99.90
17033;DHT22;63208;52.178;21.016;2023-08-31T16:28:00;18.10;99.90
17033;DHT22;63208;52.178;21.016;2023-08-31T16:30:28;18.10;99.90
17033;DHT22;63208;52.178;21.016;2023-08-31T16:32:55;18.10;99.90
17033;DHT22;63208;52.178;21.016;2023-08-31T16:35:22;18.30;99.90
17033;DHT22;63208;52.178;21.016;2023-08-31T16:37:49;18.10;99.90
17033;DHT22;63208;52.178;21.016;2023-08-31T16:40:17;18.10;99.90
17033;DHT22;63208;52.178;21.016;2023-08-31T16:42:43;18.00;99.90
17033;DHT22;63208;52.178;21.016;2023-08-31T16:45:10;17.90;99.90
17033;DHT22;63208;52.178;21.016;2023-08-31T16:47:38;18.00;99.90
17033;DHT22;63208;52.178;21.016;2023-08-31T16:50:05;18.00;99.90
17033;DHT22;63208;52.178;21.016;2023-08-31T16:52:31;18.00;99.90
17033;DHT22;63208;52.178;21.016;2023-08-31T16:54:58;18.00;99.90
17033;DHT22;63208;52.178;21.016;2023-08-31T16:57:26;18.00;99.90